Upstream stations:
Downstream station:
SHEF ID: WCOM7 Spring R A - Waco MO
STATION TYPE: Stream Gauge
Regulating: Stage = 19.00, Flow = 17743
PRECIP STAGE RIV-FLOW BAT-LOAD
in ft cfs volt
Ccp-Rev Ccp-Rev Ccp-Rev Ccp-Rev
(US/Central)
03/30 00:00 0.00 3.09 913 12.83
03/30 01:00 0.00 3.09 913 12.83
03/30 02:00 0.00 3.11 926 12.77
03/30 03:00 0.00 3.12 933 12.77
03/30 04:00 0.08 3.10 920 12.77
03/30 05:00 0.00 3.12 933 12.71
03/30 06:00 0.04 3.13 939 12.71
03/30 07:00 0.03 3.13 939 12.71
03/30 08:00 0.04 3.11 926 12.65
03/30 09:00 0.00 3.13 939 12.71
03/30 10:00 0.00 3.09 913 12.71
03/30 11:00 0.00 3.06 894 12.83
03/30 12:00 0.00 3.11 926 12.89
03/30 13:00 0.07 3.10 920 12.95
03/30 14:00 0.02 3.09 913 13.24
03/30 15:00 0.00 3.11 926 13.36
03/30 16:00 0.00 3.12 933 13.30
03/30 17:00 0.01 3.12 933 13.42
03/30 18:00 0.03 3.09 913 13.24
03/30 19:00 0.00 3.15 952 13.07
03/30 20:00 0.01 3.16 959 12.89
03/30 21:00 0.01 3.08 907 12.83
03/30 22:00 0.00 3.16 959 12.71
03/30 23:00 0.00 3.14 946 12.65